createdAt,value
2018-11-20T00:04:25.712Z,2.80
2018-11-20T00:10:26.325Z,2.78
2018-11-20T00:13:32.971Z,2.71
2018-11-20T00:16:20.682Z,2.78
2018-11-20T00:19:20.356Z,2.72
2018-11-20T00:21:58.120Z,2.75
2018-11-20T00:27:45.264Z,2.74
2018-11-20T00:33:47.392Z,2.83
2018-11-20T00:39:49.708Z,2.81
2018-11-20T00:42:37.461Z,2.82
2018-11-20T00:45:24.916Z,2.79
2018-11-20T00:51:28.723Z,2.79
2018-11-20T00:54:16.312Z,2.81
2018-11-20T00:57:03.951Z,2.77
2018-11-20T00:59:53.739Z,2.81
2018-11-20T01:02:41.482Z,2.80
2018-11-20T01:05:29.277Z,2.83
2018-11-20T01:08:16.976Z,2.80
2018-11-20T01:13:52.449Z,2.84
2018-11-20T01:16:40.105Z,2.85
2018-11-20T01:19:39.866Z,2.86
2018-11-20T01:25:44.200Z,2.80
2018-11-20T01:28:31.993Z,2.83
2018-11-20T01:34:15.336Z,2.81
2018-11-20T01:37:03.201Z,2.89
2018-11-20T01:39:57.213Z,2.86
2018-11-20T01:45:34.685Z,2.89
2018-11-20T01:48:22.282Z,2.91
2018-11-20T01:51:09.945Z,2.88
2018-11-20T01:53:45.212Z,2.92
2018-11-20T01:56:32.741Z,2.89
2018-11-20T01:59:20.585Z,2.90
2018-11-20T02:02:08.151Z,2.93
2018-11-20T02:04:55.798Z,2.94
2018-11-20T02:07:43.517Z,2.94
2018-11-20T02:10:31.216Z,2.92
2018-11-20T02:14:01.931Z,2.91
2018-11-20T02:16:52.148Z,2.95
2018-11-20T02:22:47.016Z,2.93
2018-11-20T02:25:39.636Z,2.93
2018-11-20T02:31:27.717Z,2.89
2018-11-20T02:34:18.091Z,2.97
2018-11-20T02:36:57.641Z,2.94
2018-11-20T02:39:45.330Z,2.96
2018-11-20T02:42:33.082Z,2.94
2018-11-20T02:45:21.481Z,2.91
2018-11-20T02:48:09.298Z,2.93
2018-11-20T02:50:57.043Z,2.91
2018-11-20T02:53:44.988Z,2.93
2018-11-20T02:56:34.986Z,2.98
2018-11-20T02:59:22.669Z,2.97
2018-11-20T03:02:10.547Z,2.96
2018-11-20T03:04:58.339Z,3.00
2018-11-20T03:07:46.082Z,2.96
2018-11-20T03:10:33.698Z,3.02
2018-11-20T03:13:27.472Z,3.05
2018-11-20T03:16:15.189Z,3.01
2018-11-20T03:19:03.041Z,3.02
2018-11-20T03:21:50.878Z,3.01
2018-11-20T03:24:38.807Z,3.00
2018-11-20T03:27:26.444Z,3.03
2018-11-20T03:30:41.573Z,3.05
2018-11-20T03:36:44.105Z,3.07
2018-11-20T03:39:32.053Z,3.07
2018-11-20T03:42:16.235Z,3.10
2018-11-20T03:45:08.414Z,3.09
2018-11-20T03:47:56.156Z,3.12
2018-11-20T03:50:58.283Z,3.08
2018-11-20T03:53:37.500Z,3.08
2018-11-20T03:56:25.092Z,3.05
2018-11-20T04:02:08.957Z,3.06
2018-11-20T04:04:56.825Z,3.04
2018-11-20T04:10:51.637Z,3.06
2018-11-20T04:16:46.662Z,3.05
2018-11-20T04:19:34.158Z,3.05
2018-11-20T04:22:21.926Z,3.07
2018-11-20T04:28:40.378Z,3.08
2018-11-20T04:32:06.053Z,3.08
2018-11-20T04:34:53.835Z,3.08
2018-11-20T04:40:54.802Z,3.10
2018-11-20T04:43:54.391Z,3.05
2018-11-20T04:46:43.332Z,3.05
2018-11-20T04:52:33.203Z,3.08
2018-11-20T04:55:21.116Z,3.09
2018-11-20T04:58:09.044Z,3.07
2018-11-20T05:00:56.881Z,3.06
2018-11-20T05:03:45.499Z,3.06
2018-11-20T05:06:25.499Z,3.09
2018-11-20T05:09:13.961Z,3.06
2018-11-20T05:12:01.655Z,3.07
2018-11-20T05:14:40.338Z,3.05
2018-11-20T05:17:27.868Z,3.06
2018-11-20T05:20:18.123Z,3.02
2018-11-20T05:23:11.440Z,3.02
2018-11-20T05:26:18.328Z,3.02
2018-11-20T05:29:05.943Z,3.04
2018-11-20T05:31:53.522Z,3.04
2018-11-20T05:37:46.380Z,3.00
2018-11-20T05:40:34.155Z,3.03
2018-11-20T05:43:22.669Z,3.00
2018-11-20T05:48:59.525Z,2.97
2018-11-20T05:51:47.173Z,2.99
2018-11-20T05:54:34.834Z,3.01
2018-11-20T06:00:45.016Z,3.02
2018-11-20T06:03:51.750Z,3.02
2018-11-20T06:06:40.205Z,3.03
2018-11-20T06:09:28.258Z,3.03
2018-11-20T06:12:16.021Z,3.07
2018-11-20T06:15:03.726Z,3.09
2018-11-20T06:17:51.598Z,3.10
2018-11-20T06:20:39.282Z,3.11
2018-11-20T06:23:27.129Z,3.07
2018-11-20T06:26:15.148Z,3.11
2018-11-20T06:29:02.878Z,3.10
2018-11-20T06:32:02.041Z,3.02
2018-11-20T06:40:52.412Z,2.95
2018-11-20T06:43:39.909Z,2.97
2018-11-20T06:46:27.595Z,2.97
2018-11-20T06:49:15.312Z,2.96
2018-11-20T06:52:03.275Z,2.97
2018-11-20T06:54:50.898Z,2.98
2018-11-20T06:57:38.416Z,2.96
2018-11-20T07:00:26.059Z,2.95
2018-11-20T07:03:13.773Z,2.93
2018-11-20T07:09:08.501Z,2.91
2018-11-20T07:15:03.569Z,2.92
2018-11-20T07:17:51.250Z,2.91
2018-11-20T07:20:38.871Z,2.89
2018-11-20T07:26:51.383Z,2.86
2018-11-20T07:29:39.011Z,2.89
2018-11-20T07:32:31.330Z,2.88
2018-11-20T07:38:32.681Z,2.92
2018-11-20T07:44:37.783Z,2.92
2018-11-20T07:47:17.367Z,2.95
2018-11-20T07:50:05.152Z,2.91
2018-11-20T07:56:00.093Z,2.91
2018-11-20T07:58:47.640Z,2.91
2018-11-20T08:01:36.415Z,2.90
2018-11-20T08:04:14.410Z,2.95
2018-11-20T08:07:02.101Z,2.95
2018-11-20T08:09:49.741Z,2.94
2018-11-20T08:12:56.437Z,2.95
2018-11-20T08:15:44.049Z,2.92
2018-11-20T08:18:17.952Z,2.94
2018-11-20T08:21:08.403Z,2.95
2018-11-20T08:23:57.414Z,2.94
2018-11-20T08:26:43.890Z,2.94
2018-11-20T08:29:33.435Z,2.97
2018-11-20T08:32:22.048Z,2.95
2018-11-20T08:41:22.028Z,2.97
2018-11-20T08:47:17.062Z,2.97
2018-11-20T08:53:11.945Z,2.99
2018-11-20T08:59:22.449Z,2.98
2018-11-20T09:02:10.440Z,3.00
2018-11-20T09:04:58.105Z,2.97
2018-11-20T09:07:45.837Z,3.01
2018-11-20T09:10:33.599Z,3.03
2018-11-20T09:13:21.195Z,2.97
2018-11-20T09:16:08.936Z,3.00
2018-11-20T09:18:56.525Z,2.98
2018-11-20T09:21:44.202Z,2.99
2018-11-20T09:24:31.846Z,2.99
2018-11-20T09:27:24.825Z,3.00
2018-11-20T09:30:12.792Z,2.98
2018-11-20T09:33:00.442Z,3.00
2018-11-20T09:36:02.906Z,2.99
2018-11-20T09:38:50.715Z,3.00
2018-11-20T09:44:58.197Z,3.04
2018-11-20T09:47:45.935Z,3.02
2018-11-20T09:50:35.191Z,3.03
2018-11-20T09:53:22.935Z,2.97
2018-11-20T09:56:06.977Z,3.07
2018-11-20T09:58:54.660Z,3.01
2018-11-20T10:01:42.322Z,3.08
2018-11-20T10:07:18.579Z,3.07
2018-11-20T10:10:06.122Z,3.07
2018-11-20T10:12:53.941Z,3.13
2018-11-20T10:15:46.836Z,3.04
2018-11-20T10:18:34.491Z,3.08
2018-11-20T10:21:22.987Z,3.05
2018-11-20T10:24:10.678Z,3.05
2018-11-20T10:26:58.447Z,3.06
2018-11-20T10:33:01.467Z,3.16
2018-11-20T10:36:00.994Z,3.18
2018-11-20T10:38:51.203Z,3.21
2018-11-20T10:41:39.000Z,3.17
2018-11-20T10:47:50.239Z,3.21
2018-11-20T10:53:43.674Z,3.26
2018-11-20T10:59:49.090Z,3.22
2018-11-20T11:02:38.010Z,3.16
2018-11-20T11:05:47.375Z,3.16
2018-11-20T11:08:35.100Z,3.16
2018-11-20T11:14:29.929Z,3.13
2018-11-20T11:17:17.427Z,3.06
2018-11-20T11:20:05.214Z,3.14
2018-11-20T11:22:52.897Z,3.10
2018-11-20T11:25:40.480Z,3.05
2018-11-20T11:28:28.486Z,3.08
2018-11-20T11:31:21.094Z,3.05
2018-11-20T11:34:08.853Z,3.07
2018-11-20T11:36:56.500Z,3.04
2018-11-20T11:39:45.898Z,3.03
2018-11-20T11:42:33.620Z,3.13
2018-11-20T11:45:21.315Z,3.05
2018-11-20T11:48:08.958Z,3.11
2018-11-20T11:53:55.594Z,2.96
2018-11-20T11:56:44.691Z,2.98
2018-11-20T11:59:34.334Z,2.93
2018-11-20T12:04:59.590Z,3.10
2018-11-20T12:07:39.712Z,3.05
2018-11-20T12:10:27.911Z,3.04
2018-11-20T12:16:21.513Z,3.02
2018-11-20T12:19:09.183Z,2.95
2018-11-20T12:21:56.893Z,2.94
2018-11-20T12:27:47.486Z,2.98
2018-11-20T12:30:35.056Z,2.92
2018-11-20T12:33:23.983Z,2.92
2018-11-20T12:36:12.297Z,2.89
2018-11-20T12:39:10.127Z,2.94
2018-11-20T12:41:57.959Z,2.96
2018-11-20T12:47:36.850Z,3.00
2018-11-20T12:50:37.344Z,3.05
2018-11-20T12:53:24.939Z,2.99
2018-11-20T12:56:14.031Z,3.10
2018-11-20T12:59:11.721Z,3.05
2018-11-20T13:01:59.308Z,2.98
2018-11-20T13:04:46.866Z,3.05
2018-11-20T13:07:34.563Z,3.07
2018-11-20T13:10:22.302Z,3.05
2018-11-20T13:13:10.024Z,3.09
2018-11-20T13:15:47.171Z,3.08
2018-11-20T13:18:33.766Z,3.12
2018-11-20T13:21:23.894Z,3.05
2018-11-20T13:24:13.384Z,3.09
2018-11-20T13:27:05.938Z,3.13
2018-11-20T13:29:59.310Z,3.14
2018-11-20T13:35:34.776Z,3.16
2018-11-20T13:38:22.424Z,3.10
2018-11-20T13:41:51.910Z,3.14
2018-11-20T13:44:49.565Z,3.15
2018-11-20T13:47:36.751Z,3.18
2018-11-20T13:50:25.235Z,3.13
2018-11-20T13:53:13.011Z,3.16
2018-11-20T13:59:13.957Z,3.15
2018-11-20T14:02:01.641Z,3.16
2018-11-20T14:05:00.783Z,3.15
2018-11-20T14:07:40.682Z,3.15
2018-11-20T14:10:29.354Z,3.11
2018-11-20T14:16:14.376Z,2.76
2018-11-20T14:22:43.279Z,2.34
2018-11-20T14:25:40.003Z,2.34
2018-11-20T14:28:45.434Z,2.08
2018-11-20T14:31:32.047Z,2.08
2018-11-20T14:34:11.888Z,1.98
2018-11-20T14:37:11.249Z,1.81
2018-11-20T14:43:17.983Z,1.50
2018-11-20T14:52:08.850Z,1.15
2018-11-20T14:54:56.423Z,1.10
2018-11-20T14:57:44.107Z,1.13
2018-11-20T15:03:48.018Z,1.12
2018-11-20T15:06:47.227Z,1.07
2018-11-20T15:09:41.596Z,1.07
2018-11-20T15:12:34.064Z,1.01
2018-11-20T15:15:21.732Z,1.00
2018-11-20T15:21:34.973Z,0.94
2018-11-20T15:24:22.683Z,0.95
2018-11-20T15:27:19.573Z,0.92
2018-11-20T15:30:24.814Z,0.89
2018-11-20T15:33:30.038Z,0.96
2018-11-20T15:36:17.748Z,0.96
2018-11-20T15:39:07.731Z,0.92
2018-11-20T15:41:51.631Z,0.94
2018-11-20T15:44:32.263Z,0.99
2018-11-20T15:47:38.843Z,0.98
2018-11-20T15:50:28.091Z,0.97
2018-11-20T15:53:15.616Z,1.03
2018-11-20T15:56:03.391Z,1.02
2018-11-20T15:58:53.431Z,1.02
2018-11-20T16:04:44.163Z,1.07
2018-11-20T16:07:31.948Z,1.07
2018-11-20T16:10:35.403Z,1.09
2018-11-20T16:13:48.663Z,1.14
2018-11-20T16:16:54.329Z,1.13
2018-11-20T16:19:42.000Z,1.13
2018-11-20T16:22:48.616Z,1.18
2018-11-20T16:25:36.339Z,1.22
2018-11-20T16:28:24.011Z,1.21
2018-11-20T16:34:08.609Z,1.15
2018-11-20T16:37:14.090Z,1.17
2018-11-20T16:40:13.177Z,1.20
2018-11-20T16:43:11.263Z,1.22
2018-11-20T16:45:58.973Z,1.22
2018-11-20T16:52:10.203Z,1.23
2018-11-20T16:54:57.943Z,1.16
2018-11-20T17:00:53.605Z,1.17
2018-11-20T17:03:41.380Z,1.21
2018-11-20T17:06:29.037Z,1.21
2018-11-20T17:09:25.774Z,1.31
2018-11-20T17:12:13.365Z,1.31
2018-11-20T17:15:01.088Z,1.32
2018-11-20T17:17:48.841Z,1.35
2018-11-20T17:20:47.983Z,1.41
2018-11-20T17:23:35.666Z,1.41
2018-11-20T17:26:23.293Z,1.44
2018-11-20T17:29:11.087Z,1.44
2018-11-20T17:31:58.710Z,1.50
2018-11-20T17:34:49.469Z,1.48
2018-11-20T17:37:37.283Z,1.53
2018-11-20T17:40:32.433Z,1.55
2018-11-20T17:43:15.161Z,1.54
2018-11-20T17:46:17.830Z,1.57
2018-11-20T17:49:05.417Z,1.57
2018-11-20T17:55:10.088Z,1.67
2018-11-20T17:57:58.044Z,1.67
2018-11-20T18:00:57.852Z,1.70
2018-11-20T18:03:45.623Z,1.70
2018-11-20T18:06:34.401Z,1.72
2018-11-20T18:09:25.766Z,1.78
2018-11-20T18:12:32.486Z,1.78
2018-11-20T18:15:20.232Z,1.86
2018-11-20T18:18:08.035Z,1.86
2018-11-20T18:20:55.728Z,1.93
2018-11-20T18:23:43.585Z,1.93
2018-11-20T18:30:17.010Z,2.03
2018-11-20T18:33:04.737Z,1.99
2018-11-20T18:38:59.375Z,2.08
2018-11-20T18:41:47.075Z,2.16
2018-11-20T18:44:34.899Z,2.16
2018-11-20T18:47:27.097Z,2.14
2018-11-20T18:50:14.788Z,2.22
2018-11-20T18:53:14.582Z,2.21
2018-11-20T18:55:59.872Z,2.21
2018-11-20T18:58:47.451Z,2.25
2018-11-20T19:01:40.527Z,2.26
2018-11-20T19:04:31.941Z,2.26
2018-11-20T19:07:19.837Z,2.31
2018-11-20T19:10:22.508Z,2.33
2018-11-20T19:13:10.122Z,2.36
2018-11-20T19:16:09.278Z,2.33
2018-11-20T19:22:14.665Z,2.30
2018-11-20T19:27:42.929Z,2.38
2018-11-20T19:30:30.594Z,2.34
2018-11-20T19:33:19.168Z,2.38
2018-11-20T19:36:07.831Z,2.37
2018-11-20T19:38:58.190Z,2.34
2018-11-20T19:44:47.652Z,2.38
2018-11-20T19:47:35.316Z,2.34
2018-11-20T19:50:23.292Z,2.39
2018-11-20T19:56:28.694Z,2.39
2018-11-20T20:02:43.332Z,2.36
2018-11-20T20:11:37.020Z,2.32
2018-11-20T20:14:31.424Z,2.41
2018-11-20T20:17:19.189Z,2.41
2018-11-20T20:23:13.878Z,2.40
2018-11-20T20:26:13.390Z,2.42
2018-11-20T20:28:53.432Z,2.42
2018-11-20T20:31:41.141Z,2.40
2018-11-20T20:34:34.095Z,2.40
2018-11-20T20:37:26.965Z,2.41
2018-11-20T20:40:11.226Z,2.41
2018-11-20T20:42:59.267Z,2.45
2018-11-20T20:45:46.917Z,2.42
2018-11-20T20:48:35.884Z,2.42
2018-11-20T20:51:33.962Z,2.40
2018-11-20T20:54:32.812Z,2.38
2018-11-20T20:57:20.578Z,2.38
2018-11-20T21:00:08.281Z,2.38
2018-11-20T21:05:46.288Z,2.41
2018-11-20T21:08:36.052Z,2.38
2018-11-20T21:11:17.268Z,2.40
2018-11-20T21:14:22.872Z,2.37
2018-11-20T21:17:22.416Z,2.38
2018-11-20T21:20:20.103Z,2.37
2018-11-20T21:23:19.916Z,2.36
2018-11-20T21:26:07.599Z,2.36
2018-11-20T21:28:55.249Z,2.34
2018-11-20T21:31:42.901Z,2.36
2018-11-20T21:37:45.874Z,2.33
2018-11-20T21:40:49.115Z,2.38
2018-11-20T21:43:40.255Z,2.32
2018-11-20T21:47:32.427Z,2.24
2018-11-20T21:50:19.199Z,2.25
2018-11-20T21:53:05.999Z,2.25
2018-11-20T21:56:05.310Z,2.17
2018-11-20T21:59:04.414Z,2.20
2018-11-20T22:01:52.348Z,2.11
2018-11-20T22:04:39.230Z,2.11
2018-11-20T22:07:45.813Z,2.11
2018-11-20T22:10:32.635Z,2.10
2018-11-20T22:13:19.806Z,2.09
2018-11-20T22:16:06.650Z,2.09
2018-11-20T22:18:53.704Z,2.02
2018-11-20T22:21:40.601Z,2.07
2018-11-20T22:24:18.948Z,2.01
2018-11-20T22:27:15.219Z,1.93
2018-11-20T22:30:02.141Z,1.93
2018-11-20T22:35:49.025Z,1.87
2018-11-20T22:38:48.736Z,1.91
2018-11-20T22:41:35.615Z,1.91
2018-11-20T22:44:34.872Z,1.83
2018-11-20T22:50:21.528Z,1.79
2018-11-20T22:53:21.154Z,1.73
2018-11-20T22:56:07.895Z,1.73
2018-11-20T22:58:55.786Z,1.81
2018-11-20T23:08:03.696Z,1.79
2018-11-20T23:10:31.037Z,1.79
2018-11-20T23:13:18.086Z,1.72
2018-11-20T23:15:45.690Z,1.72
2018-11-20T23:18:13.067Z,1.72
2018-11-20T23:21:21.269Z,1.81
2018-11-20T23:24:01.195Z,1.73
2018-11-20T23:26:28.570Z,1.73
2018-11-20T23:29:15.848Z,1.82
2018-11-20T23:31:43.297Z,1.76
2018-11-20T23:34:30.004Z,1.72
2018-11-20T23:37:10.263Z,1.70
2018-11-20T23:39:49.807Z,1.67
2018-11-20T23:42:20.580Z,1.69
2018-11-20T23:44:44.728Z,1.69
2018-11-20T23:47:12.155Z,1.68
2018-11-20T23:49:58.987Z,1.68
2018-11-20T23:52:26.420Z,1.66
2018-11-20T23:55:13.105Z,1.65
2018-11-20T23:57:40.883Z,1.65
